Aktualne dane pomiarowe

Uwaga, wersja testowa! Automatyczne pobieranie danych za pomocą narzędzi lub skryptów to umożliwiających jest zabronione.

Dane meteo z obszaru Polski uzyskane na podstawie depesz SYNOP pobieranych co godzinę z NWS. Najedź myszką na symbol przedstawiony w tabeli, aby uzyskać informacje co do jego znaczenia. Prosimy pamiętać, że to testowa wersja strony, która jeszcze nie jest ukończona. Stworzono również jest krótki FAQ dotyczący korzystania z tej podstrony Anomalie temperatury w chwili obecnej odniesione są do okresu referencyjnego 1951-2016. Okres ten będzie później zmieniony na 1981-2010. Kliknij ikonę aby pobrać plik CSV. Kliknij ikonę aby wygenerować mapę synoptyczną dla danego terminu.

Wybierz Datę:    

        

Mława (12270)

Dane terminowe dla wybranej stacji. Kliknij datę, aby otrzymać dane z tego terminu dla wszystkich stacji.

TemperaturaZachmurzenieWiatrCiśnienieOpadyPogoda
 Data t td wb tx tn tg rh  Nt Nl Cl Cm Ch ws wd g1 g2 wx mslp ppp ch 24h 12h t ww ww w1 w2  
2019-05-10 23:00:00 10.0 9.1 9.3--- 943.1wxwxwx0---01010.2 992.3 0.2---wx---
2019-05-10 22:00:00 10.2 9.1 9.4--- 934.0wxwxwx0---01010.3 992.4 0.7---wx---
2019-05-10 21:00:00 11.0 9.3 9.8--- 896.0wxwxwx0---01010.3 992.4 1.0---wx---
2019-05-10 20:00:00 11.6 9.3 10.1--- 868.0wxwxwxwx1wx--11009.9 992.1 1.2---wx---
2019-05-10 19:00:00 11.8 9.5 10.3--- 8610.0wxwxwxwx2wx--21009.5 991.7 1.3---------
2019-05-10 18:00:00 13.0 9.6 10.8 17.1 9.3- 8010.0wxwxwxwx2wx--21009.1 991.4 1.2- 0.512------
2019-05-10 17:00:00 14.5 9.5 11.4--- 7211.0wxwxwxwx2wx---1008.5 990.9 0.9---------
2019-05-10 16:00:00 15.6 9.3 11.7--- 6613.0wxwxwxwxwx3wx--31007.9 990.4 0.7---------
2019-05-10 15:00:00 16.5 8.2 11.6--- 5814.0wxwxwxwx1wx--11007.7 990.2 0.5---------
2019-05-10 14:00:00 16.5 7.7 11.4--- 5615.0wxwxwxwxwx2wx--21007.5 990.0 0.4---------
2019-05-10 13:00:00 15.9 7.9 11.2--- 5912.0wxwxwxwx3wx--31007.2 989.7 0.4---------
2019-05-10 12:00:00 13.8 9.0 10.8--- 739.0wxwxwx2wx--21007.3 989.7 0.9- 0.56wx-w1--
2019-05-10 11:00:00 13.0 8.9 10.4--- 769.0wxwxwx1wx--11007.3 989.6 1.3---wx---
2019-05-10 10:00:00 12.0 9.2 10.2--- 838.0wxwxwx2wx---1007.0 989.3 1.2---wx---
2019-05-10 09:00:00 11.5 9.1 9.9--- 8511.0wxwxwx2wx--21006.6 988.8 0.7---wx-w1--
2019-05-10 08:00:00 11.1 9.2 9.8--- 8814.0wxwxwx2wx--21006.1 988.3 0.7---wx---
2019-05-10 07:00:00 10.3 9.2 9.5--- 937.0wxwxwxwx1wx--11005.9 988.1 0.7---wx-w1w2--
2019-05-10 06:00:00 9.3 8.4 8.6 11.9 8.5 8 946.0wxwxwxwx1wx--11006.0 988.1 1.0 0.8 0.812wx-w1- 1.0
2019-05-10 05:00:00 9.0 7.8 8.2--- 927.0wxwxwxwx1wx--11005.5 987.6 0.6---wx-w1w2--
2019-05-10 04:00:00 8.8 7.1 7.6--- 8911.0wxwxwxwx1wx--11005.3 987.4 0.4---wx---
2019-05-10 03:00:00 8.5 6.6 7.2--- 8815.0wxwxwx1wx--11005.0 987.1 0.0---wx-w1--
2019-05-10 02:00:00 9.0 6.8 7.6--- 8617.0wxwxwx1wx--11004.9 987.0 -0.2---------
2019-05-10 01:00:00 9.3 6.7 7.6--- 8422.0wxwxwx1wx--11004.9 987.0 -0.3---wx-w1--
2019-05-10 00:00:00 9.6 6.9 7.9--- 8321.0wxwxwx2wx--21005.0 987.1 -0.2--6wx-w1--
2019-05-09 23:00:00 9.7 6.6 7.7--- 8130.0wxwxwx1wx--11005.1 987.2 -0.1---------
2019-05-09 22:00:00 10.0 6.7 7.9--- 8035.0wxwxwx1wx--11005.1 987.3 0.0---wx---
2019-05-09 21:00:00 10.1 6.8 8.0--- 8018.0wxwxwx1wx--11005.1 987.3 0.2---wx-w1--
2019-05-09 20:00:00 10.7 6.6 8.2--- 7610.0wxwxwx1wx--11005.1 987.3 0.1---wx-w1w2--
2019-05-09 19:00:00 11.2 6.5 8.4--- 7330.0wxwxwx2wx--21005.1 987.3 0.2---wx-w1--
2019-05-09 18:00:00 11.9 6.6 8.7 18.0 10.2- 7015.0wxwxwx2wx-1321004.8 987.1 0.6--12wx---
2019-05-09 17:00:00 12.9 5.8 8.8--- 6245.0wxwxwx3wx--31004.9 987.2 0.8---wx-w1w2--
2019-05-09 16:00:00 13.2 6.1 9.1--- 6230.0wxwxwxwx4wx---1004.7 987.1 0.6---wx---
2019-05-09 15:00:00 16.1 3.2 9.4--- 4245.0wxwxwx4wx-1041003.9 986.5 -0.6---------
2019-05-09 14:00:00 16.7 2.3 9.4--- 3845.0wxwxwx5wx-1051003.8 986.4 -1.2---------
2019-05-09 13:00:00 17.0 2.9 9.7--- 3940.0wxwxwxwx6wx-1061003.9 986.5 -1.5---------
2019-05-09 12:00:00 16.8 3.5 9.9--- 4135.0wxwxwxwx5wx-1451004.5 987.1 -1.4- 0.06------
2019-05-09 11:00:00 16.1 2.8 9.3--- 4135.0wxwxwxwx5wx101251005.1 987.6 -1.3---------
2019-05-09 10:00:00 16.2 2.9 9.3--- 4130.0wxwxwxwx8wx-1481005.5 988.0 -1.5---------
2019-05-09 09:00:00 15.5 2.3 8.8--- 4128.0wxwxwxwx7wx121471006.0 988.5 -1.5---------
2019-05-09 08:00:00 13.6 1.6 7.6--- 4427.0wx-wx7wx141471006.5 988.9 -1.4---------
2019-05-09 07:00:00 12.6 2.2 7.2--- 4929.0wx-wx5wx--51007.2 989.5 -1.2---------
2019-05-09 06:00:00 10.2 0.8 5.5 11.2 6.3 6 5230.0wx-wx4wx--41007.9 990.0 -0.9- 0.012----- 3.4
2019-05-09 05:00:00 7.8 -0.4 3.7--- 5640.0wx-wx5wx--51008.3 990.3 -1.3---------
2019-05-09 04:00:00 6.8 -1.1 2.9--- 5745.0wx-wx4wx--41008.8 990.7 -1.6---------
2019-05-09 03:00:00 6.6 -1.6 2.6--- 5650.0wx-wx5wx--51009.0 990.9 -2.0---------
2019-05-09 02:00:00 7.1 -1.3 3.0--- 5550.0wx-wx4wx--41009.7 991.6 -1.7---------
2019-05-09 01:00:00 7.3 -1.4 3.1--- 5450.0wx-wx5wx--51010.4 992.3 -1.2---------
2019-05-09 00:00:00 7.4 -1.3 3.2--- 5450.0wx-wx5wx--51011.0 992.9 -0.9- 0.06------
1.2 ms

 

Print Friendly, PDF & Email